Velda Village Hills, Missouri
Current Conditions -  °F | °C
As of 5:51 PM on Friday 28 Nov 2014 (Local Time) from KSTL Reporting Station
Broken Clouds Broken Clouds  
Wind Chill: 44°   Ceiling: 25000
Heat Index: 48°   Visibility: 10mi
Dew Point: 33°   Wind: 9mph
Humidity: 56%   Direction: 160°SSE
Pressure: 29.94"   Gusts: NA
Location:  38.7055°N, 90.3021°W
Report Text: KSTL 282351Z 16008KT 10SM FEW150 BKN250 09/01 A2994 RMK AO2 SLP148 T00890006 10111 20078 55005
Loading
Personal Weather Stations






























Interactive Weather Map New forecast layout! Learn more

10-Day Weather Forecast

Advertisements
Track Severe Weather on mobile